createdAt,value
2023-05-03T00:01:41.344Z,272.65
2023-05-03T00:04:08.792Z,271.52
2023-05-03T00:06:35.516Z,267.30
2023-05-03T00:09:02.553Z,269.08
2023-05-03T00:11:29.107Z,277.33
2023-05-03T00:13:55.706Z,274.40
2023-05-03T00:16:22.296Z,274.27
2023-05-03T00:18:49.457Z,268.30
2023-05-03T00:21:16.974Z,270.88
2023-05-03T00:23:43.624Z,266.13
2023-05-03T00:26:10.305Z,261.67
2023-05-03T00:28:36.871Z,270.55
2023-05-03T00:31:10.461Z,258.08
2023-05-03T00:33:38.491Z,255.70
2023-05-03T00:36:22.911Z,251.55
2023-05-03T00:38:49.472Z,242.88
2023-05-03T00:41:16.673Z,257.15
2023-05-03T00:43:43.244Z,252.35
2023-05-03T00:46:16.703Z,255.35
2023-05-03T00:48:49.225Z,253.05
2023-05-03T00:51:16.333Z,255.32
2023-05-03T00:53:43.629Z,248.32
2023-05-03T00:56:12.005Z,252.32
2023-05-03T00:58:40.530Z,241.00
2023-05-03T01:01:07.847Z,231.35
2023-05-03T01:03:37.797Z,227.55
2023-05-03T01:06:32.618Z,231.02
2023-05-03T01:09:43.660Z,196.43
2023-05-03T01:12:36.416Z,185.27
2023-05-03T01:15:17.503Z,189.57
2023-05-03T01:17:54.533Z,191.75
2023-05-03T01:20:26.942Z,193.30
2023-05-03T01:23:05.390Z,197.50
2023-05-03T01:25:33.410Z,186.55
2023-05-03T01:27:59.967Z,191.73
2023-05-03T01:30:28.863Z,197.30
2023-05-03T01:33:16.885Z,200.43
2023-05-03T01:36:05.016Z,187.65
2023-05-03T01:38:36.586Z,189.60
2023-05-03T01:41:07.066Z,186.40
2023-05-03T01:43:34.825Z,191.10
2023-05-03T01:46:01.411Z,197.68
2023-05-03T01:48:28.033Z,198.32
2023-05-03T01:50:54.737Z,202.05
2023-05-03T01:53:21.430Z,200.85
2023-05-03T01:55:47.995Z,211.15
2023-05-03T01:58:14.526Z,200.60
2023-05-03T02:00:41.186Z,205.75
2023-05-03T02:03:07.987Z,196.88
2023-05-03T02:05:35.525Z,192.88
2023-05-03T02:08:02.131Z,199.93
2023-05-03T02:10:28.806Z,194.90
2023-05-03T02:12:55.412Z,194.40
2023-05-03T02:15:21.990Z,188.35
2023-05-03T02:17:49.657Z,197.70
2023-05-03T02:20:16.615Z,192.13
2023-05-03T02:22:43.303Z,198.52
2023-05-03T02:25:09.864Z,199.95
2023-05-03T02:27:36.560Z,195.85
2023-05-03T02:30:04.264Z,193.30
2023-05-03T02:32:31.441Z,191.85
2023-05-03T02:34:58.096Z,193.25
2023-05-03T02:37:24.657Z,188.57
2023-05-03T02:39:51.398Z,189.95
2023-05-03T02:42:18.137Z,193.55
2023-05-03T02:44:46.425Z,196.27
2023-05-03T02:47:13.144Z,191.55
2023-05-03T02:49:39.679Z,187.90
2023-05-03T02:52:06.384Z,185.95
2023-05-03T02:54:33.031Z,186.15
2023-05-03T02:56:59.614Z,191.82
2023-05-03T02:59:26.286Z,190.68
2023-05-03T03:01:52.879Z,197.13
2023-05-03T03:04:19.704Z,189.10
2023-05-03T03:06:46.735Z,184.68
2023-05-03T03:09:13.416Z,195.85
2023-05-03T03:11:40.083Z,196.18
2023-05-03T03:14:06.692Z,188.65
2023-05-03T03:16:33.311Z,187.07
2023-05-03T03:18:59.901Z,186.30
2023-05-03T03:21:26.750Z,187.73
2023-05-03T03:23:53.275Z,183.20
2023-05-03T03:26:19.888Z,193.05
2023-05-03T03:28:46.435Z,186.95
2023-05-03T03:31:13.313Z,188.85
2023-05-03T03:33:39.941Z,188.00
2023-05-03T03:36:07.937Z,187.57
2023-05-03T03:38:34.509Z,183.70
2023-05-03T03:41:01.469Z,180.88
2023-05-03T03:43:28.223Z,185.48
2023-05-03T03:45:54.793Z,187.73
2023-05-03T03:48:21.351Z,189.70
2023-05-03T03:50:47.962Z,187.43
2023-05-03T03:53:14.621Z,186.25
2023-05-03T03:55:41.288Z,182.88
2023-05-03T03:58:07.896Z,184.77
2023-05-03T04:00:35.933Z,185.02
2023-05-03T04:03:03.144Z,189.73
2023-05-03T04:05:31.545Z,189.25
2023-05-03T04:07:58.398Z,192.45
2023-05-03T04:10:24.997Z,192.05
2023-05-03T04:12:51.743Z,194.18
2023-05-03T04:15:18.473Z,199.63
2023-05-03T04:17:45.032Z,200.60
2023-05-03T04:20:13.970Z,201.82
2023-05-03T04:22:40.806Z,196.32
2023-05-03T04:25:10.960Z,207.38
2023-05-03T04:27:38.308Z,200.90
2023-05-03T04:30:06.532Z,203.93
2023-05-03T04:32:37.402Z,207.93
2023-05-03T04:35:09.497Z,207.57
2023-05-03T04:37:40.551Z,195.52
2023-05-03T04:40:09.560Z,189.23
2023-05-03T04:42:36.374Z,198.77
2023-05-03T04:45:03.887Z,201.25
2023-05-03T04:47:31.085Z,198.88
2023-05-03T04:49:57.706Z,193.50
2023-05-03T04:52:25.501Z,192.70
2023-05-03T04:54:52.486Z,203.18
2023-05-03T04:57:19.062Z,202.52
2023-05-03T04:59:46.084Z,201.48
2023-05-03T05:02:12.664Z,196.10
2023-05-03T05:04:39.275Z,181.35
2023-05-03T05:07:05.935Z,180.93
2023-05-03T05:09:32.495Z,170.80
2023-05-03T05:11:59.199Z,173.52
2023-05-03T05:14:28.332Z,154.15
2023-05-03T05:16:54.980Z,138.70
2023-05-03T05:19:21.616Z,134.23
2023-05-03T05:21:48.272Z,123.45
2023-05-03T05:24:14.936Z,124.00
2023-05-03T05:26:43.198Z,117.70
2023-05-03T05:29:10.052Z,119.53
2023-05-03T05:31:36.786Z,123.28
2023-05-03T05:34:03.757Z,120.57
2023-05-03T05:36:33.406Z,119.88
2023-05-03T05:39:00.157Z,117.80
2023-05-03T05:41:27.252Z,118.63
2023-05-03T05:43:53.936Z,115.60
2023-05-03T05:46:23.605Z,122.55
2023-05-03T05:48:51.385Z,125.78
2023-05-03T05:51:18.419Z,126.95
2023-05-03T05:53:45.100Z,131.05
2023-05-03T05:56:11.843Z,128.00
2023-05-03T05:58:38.859Z,131.73
2023-05-03T06:01:05.629Z,146.02
2023-05-03T06:03:33.993Z,145.20
2023-05-03T06:06:01.003Z,149.40
2023-05-03T06:08:27.737Z,150.82
2023-05-03T06:10:54.367Z,147.50
2023-05-03T06:13:21.626Z,151.80
2023-05-03T06:15:48.212Z,177.90
2023-05-03T06:18:14.852Z,178.15
2023-05-03T06:20:42.071Z,190.43
2023-05-03T06:23:08.840Z,211.65
2023-05-03T06:25:36.485Z,243.75
2023-05-03T06:28:03.233Z,254.00
2023-05-03T06:30:30.208Z,229.18
2023-05-03T06:32:56.885Z,184.88
2023-05-03T06:35:23.789Z,160.32
2023-05-03T06:37:50.360Z,195.18
2023-05-03T06:40:16.949Z,232.48
2023-05-03T06:42:43.539Z,255.93
2023-05-03T06:45:10.585Z,262.40
2023-05-03T06:47:37.377Z,247.02
2023-05-03T06:50:04.822Z,230.20
2023-05-03T06:52:31.703Z,248.90
2023-05-03T06:54:58.290Z,226.35
2023-05-03T06:57:26.985Z,221.68
2023-05-03T06:59:54.799Z,213.52
2023-05-03T07:02:21.772Z,202.07
2023-05-03T07:04:48.356Z,184.02
2023-05-03T07:07:15.930Z,164.65
2023-05-03T07:09:43.855Z,172.65
2023-05-03T07:12:11.536Z,148.10
2023-05-03T07:14:39.766Z,133.63
2023-05-03T07:17:06.452Z,100.32
2023-05-03T07:19:33.222Z,63.47
2023-05-03T07:21:59.877Z,52.80
2023-05-03T07:24:26.450Z,81.25
2023-05-03T07:26:53.791Z,70.50
2023-05-03T07:29:20.832Z,66.68
2023-05-03T07:31:47.866Z,104.00
2023-05-03T07:34:14.509Z,95.05
2023-05-03T07:36:41.369Z,79.50
2023-05-03T07:39:08.590Z,103.50
2023-05-03T07:41:35.395Z,103.57
2023-05-03T07:44:02.003Z,125.40
2023-05-03T07:46:28.580Z,129.73
2023-05-03T07:48:55.131Z,119.18
2023-05-03T07:51:21.646Z,135.13
2023-05-03T07:53:48.213Z,144.70
2023-05-03T07:56:14.816Z,129.32
2023-05-03T07:58:42.619Z,116.05
2023-05-03T08:01:10.682Z,124.22
2023-05-03T08:03:37.564Z,116.55
2023-05-03T08:06:04.660Z,110.13
2023-05-03T08:08:32.264Z,103.65
2023-05-03T08:10:58.844Z,94.38
2023-05-03T08:13:25.489Z,90.05
2023-05-03T08:15:52.541Z,89.30
2023-05-03T08:18:20.970Z,46.85
2023-05-03T08:20:49.217Z,57.40
2023-05-03T08:23:19.238Z,51.58
2023-05-03T08:25:46.020Z,41.78
2023-05-03T08:28:12.794Z,20.80
2023-05-03T08:30:41.099Z,17.35
2023-05-03T08:33:09.962Z,15.73
2023-05-03T08:35:36.821Z,15.05
2023-05-03T08:38:05.082Z,15.20
2023-05-03T08:40:37.182Z,22.55
2023-05-03T08:43:10.322Z,17.05
2023-05-03T08:45:37.222Z,20.83
2023-05-03T08:48:04.738Z,18.15
2023-05-03T08:50:32.789Z,20.30
2023-05-03T08:53:00.210Z,29.02
2023-05-03T08:55:27.407Z,27.02
2023-05-03T08:57:54.057Z,30.13
2023-05-03T09:00:29.045Z,34.30
2023-05-03T09:02:56.226Z,29.73
2023-05-03T09:05:23.122Z,32.55
2023-05-03T09:08:10.454Z,29.70
2023-05-03T09:10:39.825Z,28.60
2023-05-03T09:13:07.789Z,27.35
2023-05-03T09:15:35.489Z,27.40
2023-05-03T09:18:15.526Z,24.48
2023-05-03T09:20:45.783Z,18.55
2023-05-03T09:23:12.606Z,18.00
2023-05-03T09:25:42.769Z,16.90
2023-05-03T09:28:09.344Z,16.02
2023-05-03T09:30:37.041Z,14.38
2023-05-03T09:33:04.602Z,14.25
2023-05-03T09:35:32.688Z,13.73
2023-05-03T09:38:00.128Z,15.45
2023-05-03T09:40:29.959Z,14.93
2023-05-03T09:43:19.359Z,15.77
2023-05-03T09:45:46.325Z,17.60
2023-05-03T09:48:13.820Z,14.68
2023-05-03T09:50:42.751Z,16.63
2023-05-03T09:53:10.355Z,18.88
2023-05-03T09:55:40.734Z,17.40
2023-05-03T09:58:08.023Z,19.15
2023-05-03T10:00:37.573Z,17.58
2023-05-03T10:03:09.174Z,18.23
2023-05-03T10:05:46.140Z,16.60
2023-05-03T10:08:33.790Z,18.65
2023-05-03T10:11:03.799Z,18.10
2023-05-03T10:13:31.988Z,19.30
2023-05-03T10:16:11.511Z,16.23
2023-05-03T10:18:46.872Z,16.63
2023-05-03T10:21:21.724Z,19.48
2023-05-03T10:24:13.811Z,20.10
2023-05-03T10:26:41.928Z,18.05
2023-05-03T10:29:33.400Z,20.25
2023-05-03T10:32:21.547Z,18.80
2023-05-03T10:34:48.176Z,19.08
2023-05-03T10:37:15.939Z,19.55
2023-05-03T10:39:46.667Z,18.67
2023-05-03T10:42:13.275Z,20.00
2023-05-03T10:44:55.064Z,17.95
2023-05-03T10:47:24.964Z,19.63
2023-05-03T10:50:16.622Z,16.70
2023-05-03T10:52:43.216Z,16.98
2023-05-03T10:55:21.452Z,15.27
2023-05-03T10:57:49.209Z,15.80
2023-05-03T11:00:34.031Z,16.88
2023-05-03T11:03:18.668Z,16.85
2023-05-03T11:05:48.133Z,18.70
2023-05-03T11:08:30.085Z,17.50
2023-05-03T11:11:02.621Z,18.42
2023-05-03T11:13:29.360Z,16.30
2023-05-03T11:15:56.447Z,17.10
2023-05-03T11:18:26.127Z,16.02
2023-05-03T11:20:54.139Z,17.30
2023-05-03T11:23:28.183Z,17.38
2023-05-03T11:28:21.933Z,15.45
2023-05-03T11:30:48.587Z,16.00
2023-05-03T11:33:15.510Z,18.48
2023-05-03T11:35:42.838Z,16.42
2023-05-03T11:38:10.275Z,18.27
2023-05-03T11:40:39.196Z,17.58
2023-05-03T11:43:09.490Z,17.48
2023-05-03T11:45:47.044Z,16.58
2023-05-03T11:48:14.395Z,17.90
2023-05-03T11:51:09.436Z,18.45
2023-05-03T11:56:03.450Z,18.27
2023-05-03T11:58:30.024Z,17.88
2023-05-03T12:00:57.384Z,18.02
2023-05-03T12:03:33.410Z,19.60
2023-05-03T12:06:02.261Z,16.48
2023-05-03T12:08:34.486Z,18.70
2023-05-03T12:11:03.827Z,18.33
2023-05-03T12:13:39.351Z,17.70
2023-05-03T12:18:55.911Z,18.25
2023-05-03T12:23:56.476Z,16.13
2023-05-03T12:26:25.573Z,17.23
2023-05-03T12:28:56.006Z,17.58
2023-05-03T12:31:23.837Z,16.58
2023-05-03T12:34:11.731Z,17.05
2023-05-03T12:36:38.427Z,17.98
2023-05-03T12:39:09.802Z,17.40
2023-05-03T12:44:09.887Z,16.98
2023-05-03T12:46:38.569Z,17.00
2023-05-03T12:49:07.934Z,16.20
2023-05-03T12:51:35.800Z,16.40
2023-05-03T12:54:03.895Z,17.00
2023-05-03T12:56:33.285Z,16.23
2023-05-03T13:04:26.504Z,16.30
2023-05-03T13:06:46.943Z,17.63
2023-05-03T13:09:20.609Z,16.98
2023-05-03T13:11:50.093Z,17.55
2023-05-03T13:14:17.074Z,15.55
2023-05-03T13:16:45.655Z,18.38
2023-05-03T13:19:13.571Z,16.67
2023-05-03T13:21:42.462Z,17.23
2023-05-03T13:24:09.407Z,16.77
2023-05-03T13:26:36.189Z,18.90
2023-05-03T13:29:02.828Z,17.40
2023-05-03T13:31:30.313Z,17.70
2023-05-03T13:33:57.328Z,16.10
2023-05-03T13:36:24.295Z,16.90
2023-05-03T13:38:51.804Z,20.27
2023-05-03T13:41:19.326Z,18.45
2023-05-03T13:43:46.273Z,18.55
2023-05-03T13:46:12.945Z,20.15
2023-05-03T13:48:40.362Z,17.67
2023-05-03T13:51:09.270Z,19.92
2023-05-03T13:53:35.899Z,18.80
2023-05-03T13:56:03.253Z,19.98
2023-05-03T13:58:29.882Z,17.45
2023-05-03T14:00:56.421Z,19.92
2023-05-03T14:03:23.337Z,16.50
2023-05-03T14:05:50.057Z,18.92
2023-05-03T14:08:16.970Z,18.48
2023-05-03T14:10:44.147Z,17.58
2023-05-03T14:13:11.401Z,17.98
2023-05-03T14:15:45.811Z,16.50
2023-05-03T14:18:12.507Z,15.77
2023-05-03T14:20:39.249Z,16.00
2023-05-03T14:23:06.120Z,17.73
2023-05-03T14:25:32.661Z,17.20
2023-05-03T14:27:59.756Z,16.20
2023-05-03T14:30:26.309Z,16.45
2023-05-03T14:32:52.929Z,16.83
2023-05-03T14:35:20.138Z,17.65
2023-05-03T14:37:47.390Z,17.55
2023-05-03T14:40:14.471Z,17.33
2023-05-03T14:42:41.191Z,16.63
2023-05-03T14:45:10.907Z,18.67
2023-05-03T14:47:39.384Z,16.20
2023-05-03T14:50:06.588Z,15.73
2023-05-03T14:52:33.512Z,15.40
2023-05-03T14:55:00.045Z,16.17
2023-05-03T14:57:26.814Z,17.63
2023-05-03T14:59:53.376Z,15.88
2023-05-03T15:02:20.177Z,14.90
2023-05-03T15:04:47.045Z,16.92
2023-05-03T15:07:13.632Z,18.48
2023-05-03T15:09:40.221Z,16.80
2023-05-03T15:12:07.457Z,18.25
2023-05-03T15:14:34.014Z,18.95
2023-05-03T15:17:00.890Z,17.52
2023-05-03T15:19:28.510Z,16.95
2023-05-03T15:21:55.346Z,14.65
2023-05-03T15:24:22.280Z,15.27
2023-05-03T15:26:48.889Z,14.77
2023-05-03T15:29:16.276Z,15.07
2023-05-03T15:31:43.719Z,15.52
2023-05-03T15:34:13.197Z,15.75
2023-05-03T15:36:40.789Z,17.13
2023-05-03T15:39:09.135Z,16.05
2023-05-03T15:41:35.885Z,17.02
2023-05-03T15:44:05.214Z,17.30
2023-05-03T15:46:32.755Z,15.77
2023-05-03T15:48:59.492Z,16.42
2023-05-03T15:51:27.842Z,15.75
2023-05-03T15:53:54.455Z,15.52
2023-05-03T15:56:21.774Z,16.73
2023-05-03T15:58:50.072Z,16.55
2023-05-03T16:01:17.233Z,16.50
2023-05-03T16:03:44.503Z,14.50
2023-05-03T16:06:11.459Z,13.85
2023-05-03T16:08:38.142Z,15.05
2023-05-03T16:11:04.976Z,14.23
2023-05-03T16:13:31.558Z,14.82
2023-05-03T16:15:58.141Z,14.63
2023-05-03T16:18:26.856Z,14.30
2023-05-03T16:20:54.186Z,13.95
2023-05-03T16:23:20.903Z,14.35
2023-05-03T16:25:47.586Z,15.20
2023-05-03T16:28:15.038Z,13.70
2023-05-03T16:30:42.466Z,14.10
2023-05-03T16:33:09.256Z,13.70
2023-05-03T16:35:35.893Z,14.45
2023-05-03T16:38:02.955Z,13.82
2023-05-03T16:40:29.987Z,14.57
2023-05-03T16:42:58.129Z,14.35
2023-05-03T16:45:25.036Z,13.50
2023-05-03T16:47:52.110Z,15.82
2023-05-03T16:50:18.739Z,14.90
2023-05-03T16:52:45.308Z,14.65
2023-05-03T16:55:13.332Z,17.05
2023-05-03T16:57:40.172Z,16.77
2023-05-03T17:00:09.353Z,16.73
2023-05-03T17:02:39.891Z,16.92
2023-05-03T17:05:12.655Z,16.30
2023-05-03T17:07:41.886Z,15.90
2023-05-03T17:10:09.154Z,18.05
2023-05-03T17:12:35.853Z,17.55
2023-05-03T17:15:02.568Z,16.55
2023-05-03T17:17:32.022Z,16.40
2023-05-03T17:19:58.674Z,17.13
2023-05-03T17:22:25.372Z,17.38
2023-05-03T17:24:55.284Z,16.70
2023-05-03T17:27:22.093Z,16.88
2023-05-03T17:29:48.643Z,16.67
2023-05-03T17:32:15.324Z,19.35
2023-05-03T17:34:41.935Z,20.45
2023-05-03T17:37:08.706Z,19.63
2023-05-03T17:39:35.291Z,20.35
2023-05-03T17:42:01.858Z,25.40
2023-05-03T17:44:28.408Z,27.00
2023-05-03T17:46:56.048Z,31.85
2023-05-03T17:49:22.616Z,37.83
2023-05-03T17:51:49.322Z,41.92
2023-05-03T17:54:15.902Z,49.47
2023-05-03T17:56:44.510Z,57.17
2023-05-03T17:59:11.136Z,69.63
2023-05-03T18:01:37.763Z,74.95
2023-05-03T18:04:04.591Z,82.22
2023-05-03T18:06:31.306Z,76.07
2023-05-03T18:08:58.524Z,82.28
2023-05-03T18:11:25.094Z,91.18
2023-05-03T18:13:51.664Z,88.38
2023-05-03T18:16:18.670Z,82.72
2023-05-03T18:18:45.252Z,81.43
2023-05-03T18:21:12.496Z,73.90
2023-05-03T18:23:39.213Z,63.55
2023-05-03T18:26:07.690Z,54.80
2023-05-03T18:28:35.146Z,46.05
2023-05-03T18:31:01.801Z,34.50
2023-05-03T18:33:28.394Z,27.10
2023-05-03T18:35:54.978Z,25.67
2023-05-03T18:38:21.878Z,19.50
2023-05-03T18:40:49.947Z,17.38
2023-05-03T18:43:16.843Z,19.45
2023-05-03T18:45:43.536Z,17.58
2023-05-03T18:48:10.197Z,20.90
2023-05-03T18:50:39.207Z,30.55
2023-05-03T18:53:06.337Z,47.65
2023-05-03T18:55:32.936Z,56.75
2023-05-03T18:57:59.611Z,78.50
2023-05-03T19:00:26.409Z,94.28
2023-05-03T19:02:52.986Z,112.05
2023-05-03T19:05:19.540Z,142.27
2023-05-03T19:07:49.188Z,172.77
2023-05-03T19:10:17.054Z,189.30
2023-05-03T19:12:44.327Z,229.75
2023-05-03T19:15:11.941Z,248.25
2023-05-03T19:17:41.667Z,279.77
2023-05-03T19:20:10.137Z,304.00
2023-05-03T19:22:36.834Z,307.20
2023-05-03T19:25:05.146Z,324.52
2023-05-03T19:27:32.109Z,344.73
2023-05-03T19:29:58.752Z,346.50
2023-05-03T19:32:25.371Z,355.83
2023-05-03T19:34:51.909Z,355.98
2023-05-03T19:37:18.573Z,347.48
2023-05-03T19:39:45.656Z,352.52
2023-05-03T19:42:12.280Z,375.05
2023-05-03T19:44:38.916Z,369.42
2023-05-03T19:47:05.548Z,365.33
2023-05-03T19:49:32.594Z,346.30
2023-05-03T19:51:59.257Z,349.90
2023-05-03T19:54:26.212Z,337.55
2023-05-03T19:56:52.911Z,323.02
2023-05-03T19:59:19.566Z,316.15
2023-05-03T20:01:46.335Z,273.75
2023-05-03T20:04:13.083Z,289.63
2023-05-03T20:06:39.831Z,270.38
2023-05-03T20:09:06.419Z,250.93
2023-05-03T20:11:32.996Z,228.63
2023-05-03T20:13:59.582Z,201.85
2023-05-03T20:16:31.398Z,179.70
2023-05-03T20:18:58.376Z,140.48
2023-05-03T20:21:24.967Z,145.05
2023-05-03T20:23:51.514Z,130.95
2023-05-03T20:26:19.126Z,118.78
2023-05-03T20:28:46.386Z,106.00
2023-05-03T20:31:13.167Z,101.28
2023-05-03T20:33:39.773Z,95.68
2023-05-03T20:36:07.240Z,97.47
2023-05-03T20:38:33.833Z,99.72
2023-05-03T20:41:00.509Z,88.20
2023-05-03T20:43:27.134Z,87.63
2023-05-03T20:45:53.771Z,75.88
2023-05-03T20:48:20.751Z,73.25
2023-05-03T20:50:47.530Z,70.85
2023-05-03T20:53:14.090Z,69.07
2023-05-03T20:55:40.815Z,69.70
2023-05-03T20:58:07.446Z,72.05
2023-05-03T21:00:34.079Z,73.80
2023-05-03T21:03:00.896Z,69.30
2023-05-03T21:05:28.939Z,69.63
2023-05-03T21:07:56.617Z,78.85
2023-05-03T21:10:23.413Z,75.20
2023-05-03T21:12:49.993Z,83.95
2023-05-03T21:15:16.597Z,87.68
2023-05-03T21:17:43.545Z,92.53
2023-05-03T21:20:10.821Z,103.55
2023-05-03T21:22:37.826Z,113.28
2023-05-03T21:25:05.778Z,114.65
2023-05-03T21:27:32.483Z,110.00
2023-05-03T21:29:59.138Z,128.55
2023-05-03T21:32:25.752Z,131.50
2023-05-03T21:34:53.806Z,146.68
2023-05-03T21:37:20.446Z,140.00
2023-05-03T21:39:58.010Z,151.68
2023-05-03T21:42:32.003Z,138.65
2023-05-03T21:44:59.113Z,159.68
2023-05-03T21:47:27.798Z,174.93
2023-05-03T21:49:54.477Z,184.60
2023-05-03T21:52:21.038Z,186.00
2023-05-03T21:54:47.592Z,188.63
2023-05-03T21:57:14.189Z,209.73
2023-05-03T21:59:40.831Z,202.75
2023-05-03T22:02:07.966Z,198.95
2023-05-03T22:04:34.935Z,217.30
2023-05-03T22:07:01.570Z,232.77
2023-05-03T22:09:28.146Z,237.30
2023-05-03T22:11:54.696Z,230.52
2023-05-03T22:14:21.290Z,250.57
2023-05-03T22:16:47.877Z,264.52
2023-05-03T22:19:14.427Z,253.45
2023-05-03T22:21:40.966Z,260.38
2023-05-03T22:24:08.390Z,272.52
2023-05-03T22:26:35.745Z,273.45
2023-05-03T22:29:02.390Z,275.15
2023-05-03T22:31:30.331Z,278.73
2023-05-03T22:33:57.226Z,283.65
2023-05-03T22:36:23.867Z,286.25
2023-05-03T22:38:55.349Z,277.02
2023-05-03T22:41:22.159Z,282.10
2023-05-03T22:43:48.740Z,288.70
2023-05-03T22:46:15.325Z,293.55
2023-05-03T22:48:41.899Z,288.85
2023-05-03T22:51:09.017Z,282.08
2023-05-03T22:53:35.567Z,286.63
2023-05-03T22:56:04.507Z,286.08
2023-05-03T22:58:31.159Z,284.70
2023-05-03T23:00:58.371Z,285.42
2023-05-03T23:03:25.393Z,287.55
2023-05-03T23:05:53.232Z,283.17
2023-05-03T23:08:20.413Z,282.02
2023-05-03T23:10:47.272Z,283.17
2023-05-03T23:13:14.107Z,280.77
2023-05-03T23:15:40.916Z,280.90
2023-05-03T23:18:07.546Z,278.70
2023-05-03T23:20:34.456Z,274.08
2023-05-03T23:23:01.013Z,268.20
2023-05-03T23:25:27.606Z,269.75
2023-05-03T23:27:54.198Z,267.52
2023-05-03T23:30:21.479Z,268.38
2023-05-03T23:32:48.700Z,259.48
2023-05-03T23:35:15.898Z,248.07
2023-05-03T23:37:42.447Z,254.27
2023-05-03T23:40:09.723Z,248.73
2023-05-03T23:42:36.531Z,234.60
2023-05-03T23:45:03.397Z,230.88
2023-05-03T23:47:30.051Z,228.25
2023-05-03T23:49:56.827Z,220.40
2023-05-03T23:52:23.468Z,216.40
2023-05-03T23:54:50.212Z,207.80
2023-05-03T23:57:16.876Z,211.90
2023-05-03T23:59:43.411Z,192.38
